East Hannibal, Illinois
Current Conditions -  °F | °C
As of 8:55 AM on Tuesday 21 Oct 2014 (Local Time) from KHAE Reporting Station
Clear Clear  
Wind Chill: 52°   Ceiling: Unl
Heat Index: 52°   Visibility: 7mi
Dew Point: 41°   Wind: 6mph
Humidity: 67%   Direction: 50°NE
Pressure: 30.15"   Gusts: NA
Location:  39.7174°N, 91.2595°W
Report Text: KHAE 211355Z AUTO 05005KT 7SM CLR 11/05 A3015 RMK AO2
Loading
Personal Weather Stations






























Interactive Weather Map
Tropical Storm Tracking
New forecast layout! Learn more

10-Day Weather Forecast

Advertisements
Track Severe Weather on mobile